sensor_id;sensor_type;location;lat;lon;timestamp;pressure;altitude;pressure_sealevel;temperature;humidity
63097;BME280;49185;42.320;23.198;2022-08-01T00:01:54;94664.44;;;15.35;100.00
63097;BME280;49185;42.320;23.198;2022-08-01T00:04:20;94672.81;;;15.08;100.00
63097;BME280;49185;42.320;23.198;2022-08-01T00:06:45;94664.22;;;14.97;100.00
63097;BME280;49185;42.320;23.198;2022-08-01T00:09:11;94667.13;;;15.35;100.00
63097;BME280;49185;42.320;23.198;2022-08-01T00:11:37;94659.47;;;15.01;100.00
63097;BME280;49185;42.320;23.198;2022-08-01T00:14:02;94661.56;;;14.77;100.00
63097;BME280;49185;42.320;23.198;2022-08-01T00:16:28;94665.78;;;14.62;100.00
63097;BME280;49185;42.320;23.198;2022-08-01T00:18:54;94669.34;;;14.58;100.00
63097;BME280;49185;42.320;23.198;2022-08-01T00:21:19;94657.47;;;14.52;100.00
63097;BME280;49185;42.320;23.198;2022-08-01T00:23:44;94655.91;;;14.71;100.00
63097;BME280;49185;42.320;23.198;2022-08-01T00:26:11;94657.25;;;14.63;100.00
63097;BME280;49185;42.320;23.198;2022-08-01T00:28:36;94655.44;;;14.40;100.00
63097;BME280;49185;42.320;23.198;2022-08-01T00:31:02;94648.53;;;14.55;100.00
63097;BME280;49185;42.320;23.198;2022-08-01T00:33:27;94655.31;;;14.80;100.00
63097;BME280;49185;42.320;23.198;2022-08-01T00:35:53;94656.28;;;14.53;100.00
63097;BME280;49185;42.320;23.198;2022-08-01T00:38:18;94654.53;;;14.27;100.00
63097;BME280;49185;42.320;23.198;2022-08-01T00:40:44;94660.41;;;14.94;100.00
63097;BME280;49185;42.320;23.198;2022-08-01T00:43:09;94656.25;;;14.89;100.00
63097;BME280;49185;42.320;23.198;2022-08-01T00:45:35;94650.72;;;14.44;100.00
63097;BME280;49185;42.320;23.198;2022-08-01T00:48:00;94654.47;;;14.31;100.00
63097;BME280;49185;42.320;23.198;2022-08-01T00:50:26;94649.31;;;14.36;100.00
63097;BME280;49185;42.320;23.198;2022-08-01T00:52:51;94646.09;;;14.93;100.00
63097;BME280;49185;42.320;23.198;2022-08-01T00:55:18;94657.84;;;14.87;100.00
63097;BME280;49185;42.320;23.198;2022-08-01T00:57:44;94648.97;;;14.34;100.00
63097;BME280;49185;42.320;23.198;2022-08-01T01:00:10;94643.69;;;14.11;100.00
63097;BME280;49185;42.320;23.198;2022-08-01T01:02:35;94637.16;;;14.08;100.00
63097;BME280;49185;42.320;23.198;2022-08-01T01:05:01;94635.72;;;13.84;100.00
63097;BME280;49185;42.320;23.198;2022-08-01T01:10:33;94642.03;;;13.77;100.00
63097;BME280;49185;42.320;23.198;2022-08-01T01:13:28;94630.50;;;14.13;100.00
63097;BME280;49185;42.320;23.198;2022-08-01T01:16:05;94632.06;;;14.30;100.00
63097;BME280;49185;42.320;23.198;2022-08-01T01:18:47;94630.97;;;14.80;100.00
63097;BME280;49185;42.320;23.198;2022-08-01T01:23:54;94636.09;;;14.22;100.00
63097;BME280;49185;42.320;23.198;2022-08-01T01:29:13;94642.22;;;14.06;100.00
63097;BME280;49185;42.320;23.198;2022-08-01T01:32:06;94636.63;;;13.97;100.00
63097;BME280;49185;42.320;23.198;2022-08-01T01:34:36;94632.34;;;14.16;100.00
63097;BME280;49185;42.320;23.198;2022-08-01T01:37:04;94632.06;;;14.50;100.00
63097;BME280;49185;42.320;23.198;2022-08-01T01:39:32;94626.94;;;14.52;100.00
63097;BME280;49185;42.320;23.198;2022-08-01T01:42:01;94631.03;;;14.44;100.00
63097;BME280;49185;42.320;23.198;2022-08-01T01:44:28;94627.41;;;14.83;100.00
63097;BME280;49185;42.320;23.198;2022-08-01T01:46:56;94621.66;;;14.29;100.00
63097;BME280;49185;42.320;23.198;2022-08-01T01:49:24;94627.75;;;13.97;100.00
63097;BME280;49185;42.320;23.198;2022-08-01T01:51:53;94622.03;;;13.75;100.00
63097;BME280;49185;42.320;23.198;2022-08-01T01:54:20;94625.19;;;13.70;100.00
63097;BME280;49185;42.320;23.198;2022-08-01T01:56:48;94629.41;;;14.10;100.00
63097;BME280;49185;42.320;23.198;2022-08-01T01:59:24;94627.59;;;14.40;100.00
63097;BME280;49185;42.320;23.198;2022-08-01T02:01:52;94623.44;;;13.79;100.00
63097;BME280;49185;42.320;23.198;2022-08-01T02:04:20;94618.91;;;13.57;100.00
63097;BME280;49185;42.320;23.198;2022-08-01T02:06:46;94620.59;;;14.06;100.00
63097;BME280;49185;42.320;23.198;2022-08-01T02:09:15;94620.78;;;14.15;100.00
63097;BME280;49185;42.320;23.198;2022-08-01T02:11:43;94618.75;;;13.64;100.00
63097;BME280;49185;42.320;23.198;2022-08-01T02:14:11;94625.94;;;13.31;100.00
63097;BME280;49185;42.320;23.198;2022-08-01T02:16:40;94617.63;;;13.22;100.00
63097;BME280;49185;42.320;23.198;2022-08-01T02:19:06;94606.13;;;13.17;100.00
63097;BME280;49185;42.320;23.198;2022-08-01T02:21:36;94615.88;;;13.31;100.00
63097;BME280;49185;42.320;23.198;2022-08-01T02:24:21;94614.78;;;13.29;100.00
63097;BME280;49185;42.320;23.198;2022-08-01T02:26:51;94619.56;;;13.21;100.00
63097;BME280;49185;42.320;23.198;2022-08-01T02:29:49;94613.19;;;13.08;100.00
63097;BME280;49185;42.320;23.198;2022-08-01T02:32:24;94614.91;;;12.98;100.00
63097;BME280;49185;42.320;23.198;2022-08-01T02:34:52;94611.50;;;12.94;100.00
63097;BME280;49185;42.320;23.198;2022-08-01T02:37:20;94617.50;;;12.82;100.00
63097;BME280;49185;42.320;23.198;2022-08-01T02:39:50;94621.53;;;12.70;100.00
63097;BME280;49185;42.320;23.198;2022-08-01T02:42:18;94613.97;;;12.62;100.00
63097;BME280;49185;42.320;23.198;2022-08-01T02:44:45;94621.94;;;12.69;100.00
63097;BME280;49185;42.320;23.198;2022-08-01T02:47:12;94615.09;;;12.64;100.00
63097;BME280;49185;42.320;23.198;2022-08-01T02:49:45;94611.84;;;12.73;100.00
63097;BME280;49185;42.320;23.198;2022-08-01T02:52:14;94613.44;;;12.70;100.00
63097;BME280;49185;42.320;23.198;2022-08-01T02:54:45;94607.38;;;13.09;100.00
63097;BME280;49185;42.320;23.198;2022-08-01T02:57:13;94608.78;;;13.41;100.00
63097;BME280;49185;42.320;23.198;2022-08-01T02:59:41;94607.25;;;13.40;100.00
63097;BME280;49185;42.320;23.198;2022-08-01T03:02:08;94604.63;;;13.36;100.00
63097;BME280;49185;42.320;23.198;2022-08-01T03:04:35;94608.19;;;13.30;100.00
63097;BME280;49185;42.320;23.198;2022-08-01T03:07:04;94610.00;;;12.70;100.00
63097;BME280;49185;42.320;23.198;2022-08-01T03:09:33;94614.41;;;12.33;100.00
63097;BME280;49185;42.320;23.198;2022-08-01T03:12:02;94614.66;;;12.15;100.00
63097;BME280;49185;42.320;23.198;2022-08-01T03:14:29;94616.09;;;12.20;100.00
63097;BME280;49185;42.320;23.198;2022-08-01T03:16:57;94611.97;;;12.15;100.00
63097;BME280;49185;42.320;23.198;2022-08-01T03:19:26;94617.06;;;12.06;100.00
63097;BME280;49185;42.320;23.198;2022-08-01T03:21:54;94611.28;;;12.08;100.00
63097;BME280;49185;42.320;23.198;2022-08-01T03:24:21;94622.16;;;12.28;100.00
63097;BME280;49185;42.320;23.198;2022-08-01T03:26:48;94612.97;;;12.52;100.00
63097;BME280;49185;42.320;23.198;2022-08-01T03:29:22;94611.69;;;12.33;100.00
63097;BME280;49185;42.320;23.198;2022-08-01T03:31:49;94615.94;;;12.34;100.00
63097;BME280;49185;42.320;23.198;2022-08-01T03:34:15;94621.19;;;12.68;100.00
63097;BME280;49185;42.320;23.198;2022-08-01T03:36:47;94619.03;;;12.56;100.00
63097;BME280;49185;42.320;23.198;2022-08-01T03:39:14;94626.75;;;12.31;100.00
63097;BME280;49185;42.320;23.198;2022-08-01T03:41:43;94620.81;;;12.16;100.00
63097;BME280;49185;42.320;23.198;2022-08-01T03:44:14;94619.81;;;12.57;100.00
63097;BME280;49185;42.320;23.198;2022-08-01T03:46:47;94621.47;;;12.74;100.00
63097;BME280;49185;42.320;23.198;2022-08-01T03:49:43;94614.63;;;13.59;100.00
63097;BME280;49185;42.320;23.198;2022-08-01T03:52:08;94624.19;;;12.97;100.00
63097;BME280;49185;42.320;23.198;2022-08-01T03:54:41;94615.25;;;12.77;100.00
63097;BME280;49185;42.320;23.198;2022-08-01T03:57:08;94609.22;;;12.69;100.00
63097;BME280;49185;42.320;23.198;2022-08-01T03:59:35;94609.03;;;12.80;100.00
63097;BME280;49185;42.320;23.198;2022-08-01T04:02:03;94623.19;;;13.74;100.00
63097;BME280;49185;42.320;23.198;2022-08-01T04:04:28;94615.44;;;13.96;100.00
63097;BME280;49185;42.320;23.198;2022-08-01T04:06:54;94619.44;;;13.87;100.00
63097;BME280;49185;42.320;23.198;2022-08-01T04:09:21;94622.41;;;13.93;100.00
63097;BME280;49185;42.320;23.198;2022-08-01T04:11:47;94620.97;;;13.88;100.00
63097;BME280;49185;42.320;23.198;2022-08-01T04:14:13;94622.88;;;14.08;100.00
63097;BME280;49185;42.320;23.198;2022-08-01T04:16:39;94616.28;;;15.10;100.00
63097;BME280;49185;42.320;23.198;2022-08-01T04:19:04;94607.06;;;15.07;100.00
63097;BME280;49185;42.320;23.198;2022-08-01T04:21:32;94620.13;;;14.80;100.00
63097;BME280;49185;42.320;23.198;2022-08-01T04:24:18;94609.47;;;14.56;100.00
63097;BME280;49185;42.320;23.198;2022-08-01T04:26:46;94606.19;;;14.49;100.00
63097;BME280;49185;42.320;23.198;2022-08-01T04:29:15;94613.59;;;14.45;100.00
63097;BME280;49185;42.320;23.198;2022-08-01T04:31:43;94617.78;;;14.82;100.00
63097;BME280;49185;42.320;23.198;2022-08-01T04:34:12;94618.16;;;15.13;100.00
63097;BME280;49185;42.320;23.198;2022-08-01T04:36:39;94610.34;;;15.31;100.00
63097;BME280;49185;42.320;23.198;2022-08-01T04:39:06;94620.91;;;15.58;100.00
63097;BME280;49185;42.320;23.198;2022-08-01T04:41:32;94616.47;;;15.48;100.00
63097;BME280;49185;42.320;23.198;2022-08-01T04:43:59;94624.91;;;15.66;100.00
63097;BME280;49185;42.320;23.198;2022-08-01T04:46:24;94641.78;;;16.41;100.00
63097;BME280;49185;42.320;23.198;2022-08-01T04:48:51;94631.94;;;18.10;100.00
63097;BME280;49185;42.320;23.198;2022-08-01T04:51:17;94633.19;;;20.21;100.00
63097;BME280;49185;42.320;23.198;2022-08-01T04:53:44;94623.38;;;23.78;100.00
63097;BME280;49185;42.320;23.198;2022-08-01T04:56:09;94625.78;;;24.74;61.20
63097;BME280;49185;42.320;23.198;2022-08-01T04:58:35;94630.53;;;26.12;54.38
63097;BME280;49185;42.320;23.198;2022-08-01T05:01:00;94630.91;;;24.92;58.17
63097;BME280;49185;42.320;23.198;2022-08-01T05:03:26;94629.75;;;23.69;62.56
63097;BME280;49185;42.320;23.198;2022-08-01T05:05:51;94625.59;;;26.83;50.74
63097;BME280;49185;42.320;23.198;2022-08-01T05:08:17;94619.81;;;27.95;46.29
63097;BME280;49185;42.320;23.198;2022-08-01T05:10:42;94626.47;;;25.91;52.36
63097;BME280;49185;42.320;23.198;2022-08-01T05:13:08;94632.47;;;25.36;53.46
63097;BME280;49185;42.320;23.198;2022-08-01T05:15:36;94628.59;;;25.59;51.73
63097;BME280;49185;42.320;23.198;2022-08-01T05:18:03;94629.47;;;24.97;53.96
63097;BME280;49185;42.320;23.198;2022-08-01T05:20:28;94623.28;;;27.32;47.07
63097;BME280;49185;42.320;23.198;2022-08-01T05:22:53;94624.59;;;26.70;46.76
63097;BME280;49185;42.320;23.198;2022-08-01T05:25:19;94636.31;;;28.88;41.39
63097;BME280;49185;42.320;23.198;2022-08-01T05:27:44;94630.78;;;25.49;50.06
63097;BME280;49185;42.320;23.198;2022-08-01T05:30:10;94627.84;;;26.51;48.52
63097;BME280;49185;42.320;23.198;2022-08-01T05:32:36;94629.84;;;26.45;47.98
63097;BME280;49185;42.320;23.198;2022-08-01T05:35:02;94628.47;;;24.63;55.24
63097;BME280;49185;42.320;23.198;2022-08-01T05:37:27;94638.34;;;23.77;60.15
63097;BME280;49185;42.320;23.198;2022-08-01T05:39:53;94635.25;;;28.26;46.29
63097;BME280;49185;42.320;23.198;2022-08-01T05:42:18;94647.41;;;26.42;51.02
63097;BME280;49185;42.320;23.198;2022-08-01T05:44:44;94637.69;;;25.76;51.69
63097;BME280;49185;42.320;23.198;2022-08-01T05:47:09;94632.09;;;23.76;59.32
63097;BME280;49185;42.320;23.198;2022-08-01T05:49:35;94644.91;;;26.61;52.40
63097;BME280;49185;42.320;23.198;2022-08-01T05:52:00;94645.81;;;27.64;47.37
63097;BME280;49185;42.320;23.198;2022-08-01T05:54:26;94642.13;;;24.51;56.77
63097;BME280;49185;42.320;23.198;2022-08-01T05:56:51;94636.38;;;24.03;55.40
63097;BME280;49185;42.320;23.198;2022-08-01T05:59:17;94637.94;;;25.73;53.15
63097;BME280;49185;42.320;23.198;2022-08-01T06:01:42;94635.88;;;27.22;48.65
63097;BME280;49185;42.320;23.198;2022-08-01T06:04:07;94637.63;;;25.65;49.54
63097;BME280;49185;42.320;23.198;2022-08-01T06:06:33;94637.66;;;26.69;48.48
63097;BME280;49185;42.320;23.198;2022-08-01T06:08:58;94646.09;;;26.26;49.38
63097;BME280;49185;42.320;23.198;2022-08-01T06:11:24;94631.88;;;26.84;46.50
63097;BME280;49185;42.320;23.198;2022-08-01T06:13:49;94629.34;;;26.41;47.80
63097;BME280;49185;42.320;23.198;2022-08-01T06:16:15;94626.84;;;26.60;47.31
63097;BME280;49185;42.320;23.198;2022-08-01T06:18:41;94634.84;;;30.79;36.75
63097;BME280;49185;42.320;23.198;2022-08-01T06:21:06;94641.31;;;28.95;41.41
63097;BME280;49185;42.320;23.198;2022-08-01T06:23:32;94639.66;;;26.80;44.41
63097;BME280;49185;42.320;23.198;2022-08-01T06:25:57;94642.66;;;26.65;45.46
63097;BME280;49185;42.320;23.198;2022-08-01T06:28:23;94632.19;;;27.77;44.39
63097;BME280;49185;42.320;23.198;2022-08-01T06:30:49;94634.84;;;30.79;37.62
63097;BME280;49185;42.320;23.198;2022-08-01T06:33:14;94625.78;;;28.87;40.49
63097;BME280;49185;42.320;23.198;2022-08-01T06:35:40;94628.50;;;27.52;45.40
63097;BME280;49185;42.320;23.198;2022-08-01T06:38:05;94627.72;;;27.74;44.32
63097;BME280;49185;42.320;23.198;2022-08-01T06:40:31;94626.16;;;27.84;44.74
63097;BME280;49185;42.320;23.198;2022-08-01T06:42:56;94619.94;;;28.19;44.20
63097;BME280;49185;42.320;23.198;2022-08-01T06:45:22;94610.22;;;29.08;41.59
63097;BME280;49185;42.320;23.198;2022-08-01T06:47:48;94606.75;;;30.82;37.07
63097;BME280;49185;42.320;23.198;2022-08-01T06:50:14;94607.97;;;32.87;31.98
63097;BME280;49185;42.320;23.198;2022-08-01T06:52:39;94614.97;;;31.20;36.91
63097;BME280;49185;42.320;23.198;2022-08-01T06:55:05;94611.56;;;30.31;36.77
63097;BME280;49185;42.320;23.198;2022-08-01T06:57:31;94608.75;;;30.50;34.41
63097;BME280;49185;42.320;23.198;2022-08-01T06:59:57;94605.69;;;30.72;34.87
63097;BME280;49185;42.320;23.198;2022-08-01T07:02:25;94606.91;;;31.35;30.94
63097;BME280;49185;42.320;23.198;2022-08-01T07:04:51;94606.16;;;30.89;31.69
63097;BME280;49185;42.320;23.198;2022-08-01T07:07:16;94610.22;;;30.56;32.01
63097;BME280;49185;42.320;23.198;2022-08-01T07:09:42;94602.72;;;30.83;30.00
63097;BME280;49185;42.320;23.198;2022-08-01T07:12:07;94614.41;;;31.08;28.46
63097;BME280;49185;42.320;23.198;2022-08-01T07:14:33;94619.13;;;29.93;32.57
63097;BME280;49185;42.320;23.198;2022-08-01T07:16:58;94602.28;;;31.64;28.91
63097;BME280;49185;42.320;23.198;2022-08-01T07:19:24;94616.03;;;29.05;32.02
63097;BME280;49185;42.320;23.198;2022-08-01T07:21:50;94623.31;;;25.55;39.10
63097;BME280;49185;42.320;23.198;2022-08-01T07:24:15;94627.59;;;26.33;40.93
63097;BME280;49185;42.320;23.198;2022-08-01T07:26:43;94613.81;;;30.32;29.97
63097;BME280;49185;42.320;23.198;2022-08-01T07:29:09;94607.53;;;28.67;32.76
63097;BME280;49185;42.320;23.198;2022-08-01T07:31:34;94618.59;;;26.49;38.60
63097;BME280;49185;42.320;23.198;2022-08-01T07:34:00;94617.56;;;26.80;35.14
63097;BME280;49185;42.320;23.198;2022-08-01T07:36:25;94609.94;;;27.53;35.76
63097;BME280;49185;42.320;23.198;2022-08-01T07:38:51;94607.66;;;27.51;35.91
63097;BME280;49185;42.320;23.198;2022-08-01T07:41:16;94610.00;;;26.13;37.93
63097;BME280;49185;42.320;23.198;2022-08-01T07:43:42;94611.88;;;25.20;37.09
63097;BME280;49185;42.320;23.198;2022-08-01T07:46:07;94614.00;;;26.23;37.14
63097;BME280;49185;42.320;23.198;2022-08-01T07:48:33;94602.19;;;27.98;34.28
63097;BME280;49185;42.320;23.198;2022-08-01T07:50:59;94599.84;;;29.63;30.92
63097;BME280;49185;42.320;23.198;2022-08-01T07:53:24;94604.22;;;29.96;32.58
63097;BME280;49185;42.320;23.198;2022-08-01T07:55:50;94598.16;;;29.06;33.42
63097;BME280;49185;42.320;23.198;2022-08-01T07:58:16;94601.25;;;28.37;32.31
63097;BME280;49185;42.320;23.198;2022-08-01T08:00:42;94596.69;;;28.39;34.84
63097;BME280;49185;42.320;23.198;2022-08-01T08:03:07;94601.91;;;30.19;30.83
63097;BME280;49185;42.320;23.198;2022-08-01T08:05:33;94602.59;;;31.21;27.81
63097;BME280;49185;42.320;23.198;2022-08-01T08:07:58;94606.88;;;31.61;28.50
63097;BME280;49185;42.320;23.198;2022-08-01T08:10:24;94598.41;;;30.69;29.81
63097;BME280;49185;42.320;23.198;2022-08-01T08:12:50;94594.72;;;29.91;31.82
63097;BME280;49185;42.320;23.198;2022-08-01T08:15:15;94602.41;;;29.36;33.58
63097;BME280;49185;42.320;23.198;2022-08-01T08:17:41;94590.72;;;29.87;31.03
63097;BME280;49185;42.320;23.198;2022-08-01T08:20:07;94600.28;;;26.85;36.02
63097;BME280;49185;42.320;23.198;2022-08-01T08:22:33;94612.34;;;24.81;40.30
63097;BME280;49185;42.320;23.198;2022-08-01T08:24:59;94598.00;;;26.78;37.35
63097;BME280;49185;42.320;23.198;2022-08-01T08:27:25;94587.84;;;29.06;32.75
63097;BME280;49185;42.320;23.198;2022-08-01T08:29:50;94590.00;;;29.43;32.37
63097;BME280;49185;42.320;23.198;2022-08-01T08:32:16;94599.06;;;28.59;35.18
63097;BME280;49185;42.320;23.198;2022-08-01T08:34:41;94594.16;;;27.37;35.11
63097;BME280;49185;42.320;23.198;2022-08-01T08:37:07;94597.59;;;28.53;35.46
63097;BME280;49185;42.320;23.198;2022-08-01T08:39:32;94604.78;;;26.54;38.55
63097;BME280;49185;42.320;23.198;2022-08-01T08:42:06;94596.09;;;27.64;35.81
63097;BME280;49185;42.320;23.198;2022-08-01T08:44:31;94598.19;;;27.24;35.33
63097;BME280;49185;42.320;23.198;2022-08-01T08:46:58;94592.53;;;28.16;34.28
63097;BME280;49185;42.320;23.198;2022-08-01T08:49:27;94597.59;;;27.65;35.98
63097;BME280;49185;42.320;23.198;2022-08-01T08:51:53;94593.81;;;27.74;35.93
63097;BME280;49185;42.320;23.198;2022-08-01T08:54:21;94593.94;;;27.23;39.34
63097;BME280;49185;42.320;23.198;2022-08-01T08:56:47;94598.53;;;26.99;36.04
63097;BME280;49185;42.320;23.198;2022-08-01T08:59:14;94586.06;;;27.55;36.97
63097;BME280;49185;42.320;23.198;2022-08-01T09:01:40;94593.16;;;27.34;34.56
63097;BME280;49185;42.320;23.198;2022-08-01T09:04:06;94579.47;;;26.78;38.36
63097;BME280;49185;42.320;23.198;2022-08-01T09:06:32;94578.59;;;27.34;39.11
63097;BME280;49185;42.320;23.198;2022-08-01T09:08:59;94581.47;;;26.83;39.10
63097;BME280;49185;42.320;23.198;2022-08-01T09:11:25;94589.19;;;26.23;41.79
63097;BME280;49185;42.320;23.198;2022-08-01T09:16:35;94575.38;;;27.87;37.83
63097;BME280;49185;42.320;23.198;2022-08-01T09:19:12;94574.50;;;28.09;34.36
63097;BME280;49185;42.320;23.198;2022-08-01T09:21:38;94573.53;;;27.49;36.52
63097;BME280;49185;42.320;23.198;2022-08-01T09:24:12;94571.09;;;27.28;38.08
63097;BME280;49185;42.320;23.198;2022-08-01T09:26:38;94578.56;;;27.45;35.27
63097;BME280;49185;42.320;23.198;2022-08-01T09:29:08;94577.97;;;26.49;41.34
63097;BME280;49185;42.320;23.198;2022-08-01T09:31:43;94575.84;;;27.39;37.27
63097;BME280;49185;42.320;23.198;2022-08-01T09:34:09;94580.88;;;25.79;41.32
63097;BME280;49185;42.320;23.198;2022-08-01T09:36:49;94572.94;;;26.37;40.55
63097;BME280;49185;42.320;23.198;2022-08-01T09:39:15;94571.94;;;26.28;41.32
63097;BME280;49185;42.320;23.198;2022-08-01T09:41:41;94569.69;;;26.60;40.81
63097;BME280;49185;42.320;23.198;2022-08-01T09:44:06;94559.06;;;25.81;42.58
63097;BME280;49185;42.320;23.198;2022-08-01T09:46:32;94561.38;;;27.00;39.94
63097;BME280;49185;42.320;23.198;2022-08-01T09:49:00;94567.19;;;26.51;42.23
63097;BME280;49185;42.320;23.198;2022-08-01T09:51:32;94563.78;;;25.69;45.07
63097;BME280;49185;42.320;23.198;2022-08-01T09:53:58;94570.06;;;25.16;44.99
63097;BME280;49185;42.320;23.198;2022-08-01T09:56:23;94565.03;;;25.63;42.91
63097;BME280;49185;42.320;23.198;2022-08-01T09:58:56;94559.34;;;27.06;38.97
63097;BME280;49185;42.320;23.198;2022-08-01T10:17:56;94532.22;;;29.53;32.31
63097;BME280;49185;42.320;23.198;2022-08-01T10:20:42;94534.09;;;28.96;36.34
63097;BME280;49185;42.320;23.198;2022-08-01T10:23:33;94533.91;;;29.37;36.51
63097;BME280;49185;42.320;23.198;2022-08-01T10:26:19;94532.22;;;29.28;35.34
63097;BME280;49185;42.320;23.198;2022-08-01T10:29:05;94526.75;;;27.73;35.62
63097;BME280;49185;42.320;23.198;2022-08-01T10:31:51;94525.25;;;26.98;41.93
63097;BME280;49185;42.320;23.198;2022-08-01T10:34:37;94520.53;;;26.76;41.83
63097;BME280;49185;42.320;23.198;2022-08-01T10:37:23;94520.41;;;25.53;42.10
63097;BME280;49185;42.320;23.198;2022-08-01T10:40:12;94521.06;;;26.41;40.88
63097;BME280;49185;42.320;23.198;2022-08-01T10:42:58;94509.25;;;26.68;40.94
63097;BME280;49185;42.320;23.198;2022-08-01T10:45:44;94507.03;;;26.27;42.86
63097;BME280;49185;42.320;23.198;2022-08-01T10:48:53;94505.53;;;27.40;41.22
63097;BME280;49185;42.320;23.198;2022-08-01T10:51:41;94510.09;;;27.26;40.52
63097;BME280;49185;42.320;23.198;2022-08-01T10:54:27;94515.28;;;26.27;39.70
63097;BME280;49185;42.320;23.198;2022-08-01T10:57:14;94502.81;;;28.22;38.46
63097;BME280;49185;42.320;23.198;2022-08-01T11:00:00;94503.81;;;29.47;33.45
63097;BME280;49185;42.320;23.198;2022-08-01T11:02:35;94499.91;;;30.12;32.79
63097;BME280;49185;42.320;23.198;2022-08-01T11:05:12;94506.59;;;29.47;32.37
63097;BME280;49185;42.320;23.198;2022-08-01T11:07:52;94502.56;;;28.20;34.16
63097;BME280;49185;42.320;23.198;2022-08-01T11:10:35;94493.88;;;27.64;34.88
63097;BME280;49185;42.320;23.198;2022-08-01T11:13:02;94490.03;;;27.26;35.65
63097;BME280;49185;42.320;23.198;2022-08-01T11:15:27;94496.09;;;28.42;33.92
63097;BME280;49185;42.320;23.198;2022-08-01T11:17:53;94483.88;;;28.56;35.11
63097;BME280;49185;42.320;23.198;2022-08-01T11:20:28;94485.13;;;29.10;32.81
63097;BME280;49185;42.320;23.198;2022-08-01T11:25:27;94485.00;;;29.40;31.54
63097;BME280;49185;42.320;23.198;2022-08-01T11:30:40;94476.53;;;29.13;32.99
63097;BME280;49185;42.320;23.198;2022-08-01T11:33:06;94478.44;;;28.75;32.85
63097;BME280;49185;42.320;23.198;2022-08-01T11:35:32;94477.63;;;27.90;33.74
63097;BME280;49185;42.320;23.198;2022-08-01T11:38:27;94470.84;;;28.81;32.57
63097;BME280;49185;42.320;23.198;2022-08-01T11:41:16;94471.38;;;29.79;30.85
63097;BME280;49185;42.320;23.198;2022-08-01T11:44:16;94472.19;;;29.74;28.73
63097;BME280;49185;42.320;23.198;2022-08-01T11:46:49;94469.44;;;30.57;28.82
63097;BME280;49185;42.320;23.198;2022-08-01T11:49:42;94462.72;;;30.33;30.20
63097;BME280;49185;42.320;23.198;2022-08-01T11:52:10;94465.69;;;30.22;31.46
63097;BME280;49185;42.320;23.198;2022-08-01T11:57:11;94456.31;;;32.46;27.18
63097;BME280;49185;42.320;23.198;2022-08-01T11:59:45;94452.75;;;32.87;26.97
63097;BME280;49185;42.320;23.198;2022-08-01T12:02:31;94456.63;;;31.80;28.07
63097;BME280;49185;42.320;23.198;2022-08-01T12:07:25;94456.84;;;31.08;27.30
63097;BME280;49185;42.320;23.198;2022-08-01T12:10:10;94452.06;;;30.96;30.60
63097;BME280;49185;42.320;23.198;2022-08-01T12:12:41;94451.25;;;29.41;30.87
63097;BME280;49185;42.320;23.198;2022-08-01T12:15:08;94451.91;;;29.28;31.59
63097;BME280;49185;42.320;23.198;2022-08-01T12:17:38;94459.84;;;29.56;30.47
63097;BME280;49185;42.320;23.198;2022-08-01T12:20:06;94458.28;;;30.12;30.06
63097;BME280;49185;42.320;23.198;2022-08-01T12:22:33;94454.72;;;28.55;33.21
63097;BME280;49185;42.320;23.198;2022-08-01T12:25:09;94449.81;;;27.77;35.91
63097;BME280;49185;42.320;23.198;2022-08-01T12:27:36;94452.44;;;29.27;32.51
63097;BME280;49185;42.320;23.198;2022-08-01T12:30:06;94446.03;;;30.07;31.57
63097;BME280;49185;42.320;23.198;2022-08-01T12:32:33;94456.69;;;29.28;33.05
63097;BME280;49185;42.320;23.198;2022-08-01T12:37:32;94441.19;;;28.52;35.61
63097;BME280;49185;42.320;23.198;2022-08-01T12:39:59;94451.75;;;27.58;33.42
63097;BME280;49185;42.320;23.198;2022-08-01T12:42:25;94449.72;;;27.58;35.36
63097;BME280;49185;42.320;23.198;2022-08-01T12:44:51;94449.03;;;26.83;37.63
63097;BME280;49185;42.320;23.198;2022-08-01T12:47:18;94444.91;;;26.32;38.65
63097;BME280;49185;42.320;23.198;2022-08-01T12:49:44;94438.81;;;26.61;37.98
63097;BME280;49185;42.320;23.198;2022-08-01T12:52:11;94433.38;;;27.14;37.93
63097;BME280;49185;42.320;23.198;2022-08-01T12:57:42;94439.47;;;27.89;36.68
63097;BME280;49185;42.320;23.198;2022-08-01T13:00:14;94437.19;;;27.93;37.88
63097;BME280;49185;42.320;23.198;2022-08-01T13:02:41;94438.47;;;27.45;37.24
63097;BME280;49185;42.320;23.198;2022-08-01T13:05:07;94436.19;;;27.90;36.31
63097;BME280;49185;42.320;23.198;2022-08-01T13:07:42;94432.72;;;28.44;36.76
63097;BME280;49185;42.320;23.198;2022-08-01T13:10:09;94431.03;;;28.60;37.05
63097;BME280;49185;42.320;23.198;2022-08-01T13:12:35;94434.63;;;27.95;38.03
63097;BME280;49185;42.320;23.198;2022-08-01T13:15:19;94432.44;;;26.94;40.21
63097;BME280;49185;42.320;23.198;2022-08-01T13:17:45;94432.84;;;26.41;39.81
63097;BME280;49185;42.320;23.198;2022-08-01T13:20:41;94448.13;;;26.19;41.20
63097;BME280;49185;42.320;23.198;2022-08-01T13:23:13;94449.88;;;26.22;40.50
63097;BME280;49185;42.320;23.198;2022-08-01T13:25:50;94448.91;;;26.14;40.82
63097;BME280;49185;42.320;23.198;2022-08-01T13:28:20;94437.31;;;26.55;42.38
63097;BME280;49185;42.320;23.198;2022-08-01T13:30:57;94433.69;;;27.05;38.94
63097;BME280;49185;42.320;23.198;2022-08-01T13:33:24;94425.97;;;26.81;38.86
63097;BME280;49185;42.320;23.198;2022-08-01T13:35:51;94437.56;;;26.68;39.90
63097;BME280;49185;42.320;23.198;2022-08-01T13:38:17;94447.63;;;26.49;40.95
63097;BME280;49185;42.320;23.198;2022-08-01T13:40:43;94438.84;;;26.34;42.30